createdAt,value
2022-09-09T00:00:08.378Z,5.61
2022-09-09T00:01:28.314Z,5.84
2022-09-09T00:02:23.385Z,6.45
2022-09-09T00:03:47.407Z,7.43
2022-09-09T00:04:46.245Z,7.15
2022-09-09T00:06:08.314Z,6.71
2022-09-09T00:07:15.279Z,6.50
2022-09-09T00:07:59.325Z,7.54
2022-09-09T00:09:06.405Z,6.30
2022-09-09T00:10:25.270Z,6.43
2022-09-09T00:11:09.522Z,5.20
2022-09-09T00:12:03.274Z,5.55
2022-09-09T00:13:31.314Z,6.36
2022-09-09T00:14:46.276Z,5.94
2022-09-09T00:15:54.300Z,5.00
2022-09-09T00:16:51.272Z,5.14
2022-09-09T00:17:57.285Z,5.81
2022-09-09T00:19:18.317Z,5.51
2022-09-09T00:20:31.262Z,5.16
2022-09-09T00:21:30.281Z,5.54
2022-09-09T00:22:32.267Z,4.45
2022-09-09T00:23:29.256Z,5.10
2022-09-09T00:24:38.347Z,5.15
2022-09-09T00:25:55.297Z,4.31
2022-09-09T00:27:02.273Z,4.40
2022-09-09T00:28:04.260Z,5.04
2022-09-09T00:29:33.261Z,5.19
2022-09-09T00:30:27.328Z,4.78
2022-09-09T00:31:19.200Z,4.34
2022-09-09T00:32:07.273Z,4.41
2022-09-09T00:32:47.646Z,4.39
2022-09-09T00:33:31.266Z,4.57
2022-09-09T00:34:35.396Z,5.72
2022-09-09T00:35:30.293Z,5.99
2022-09-09T00:36:10.330Z,5.60
2022-09-09T00:36:54.234Z,4.66
2022-09-09T00:37:36.025Z,4.32
2022-09-09T00:38:32.293Z,4.34
2022-09-09T00:39:13.350Z,4.85
2022-09-09T00:39:59.323Z,5.11
2022-09-09T00:41:00.285Z,5.50
2022-09-09T00:42:17.233Z,6.00
2022-09-09T00:43:39.280Z,6.35
2022-09-09T00:44:47.310Z,4.32
2022-09-09T00:46:20.338Z,4.49
2022-09-09T00:47:52.257Z,5.38
2022-09-09T00:49:38.288Z,5.35
2022-09-09T00:51:01.219Z,5.34
2022-09-09T00:51:50.282Z,5.51
2022-09-09T00:53:20.572Z,6.01
2022-09-09T00:54:33.257Z,5.95
2022-09-09T00:55:44.241Z,5.25
2022-09-09T00:56:50.287Z,5.43
2022-09-09T00:57:50.249Z,5.96
2022-09-09T00:58:44.233Z,6.14
2022-09-09T00:59:56.232Z,5.20
2022-09-09T01:01:02.308Z,5.86
2022-09-09T01:01:56.317Z,5.84
2022-09-09T01:03:15.226Z,6.20
2022-09-09T01:04:11.244Z,7.00
2022-09-09T01:05:05.273Z,6.89
2022-09-09T01:06:26.246Z,7.04
2022-09-09T01:07:26.300Z,6.89
2022-09-09T01:08:00.324Z,6.60
2022-09-09T01:09:21.213Z,6.49
2022-09-09T01:10:05.316Z,6.81
2022-09-09T01:10:58.248Z,7.24
2022-09-09T01:12:02.297Z,6.65
2022-09-09T01:12:51.262Z,6.04
2022-09-09T01:13:42.301Z,6.32
2022-09-09T01:14:53.220Z,6.95
2022-09-09T01:15:34.277Z,7.70
2022-09-09T01:16:22.277Z,8.04
2022-09-09T01:16:56.349Z,8.29
2022-09-09T01:18:12.260Z,6.19
2022-09-09T01:18:54.342Z,7.10
2022-09-09T01:19:52.285Z,6.51
2022-09-09T01:20:37.263Z,7.01
2022-09-09T01:21:49.242Z,7.09
2022-09-09T01:22:40.366Z,6.05
2022-09-09T01:23:59.243Z,6.41
2022-09-09T01:25:09.761Z,7.03
2022-09-09T01:26:33.221Z,6.22
2022-09-09T01:27:10.266Z,6.45
2022-09-09T01:28:00.197Z,6.19
2022-09-09T01:28:36.682Z,6.31
2022-09-09T01:29:26.301Z,6.10
2022-09-09T01:30:00.672Z,6.15
2022-09-09T01:30:49.278Z,7.39
2022-09-09T01:32:08.286Z,6.65
2022-09-09T01:33:06.216Z,7.06
2022-09-09T01:33:40.293Z,8.13
2022-09-09T01:34:29.235Z,7.09
2022-09-09T01:35:03.316Z,6.65
2022-09-09T01:36:27.176Z,7.25
2022-09-09T01:37:07.257Z,7.71
2022-09-09T01:37:54.203Z,7.00
2022-09-09T01:38:29.364Z,7.32
2022-09-09T01:39:16.195Z,7.38
2022-09-09T01:39:58.300Z,7.57
2022-09-09T01:40:53.229Z,7.13
2022-09-09T01:41:47.192Z,7.75
2022-09-09T01:42:41.223Z,7.80
2022-09-09T01:43:36.243Z,6.45
2022-09-09T01:44:30.235Z,6.54
2022-09-09T01:45:17.236Z,6.96
2022-09-09T01:45:52.313Z,6.93
2022-09-09T01:46:39.210Z,6.81
2022-09-09T01:47:13.287Z,7.05
2022-09-09T01:48:01.173Z,7.75
2022-09-09T01:48:36.352Z,8.25
2022-09-09T01:49:25.212Z,7.76
2022-09-09T01:49:59.272Z,7.20
2022-09-09T01:50:39.234Z,7.57
2022-09-09T01:51:19.272Z,7.56
2022-09-09T01:52:04.185Z,8.74
2022-09-09T01:52:45.367Z,7.71
2022-09-09T01:53:27.173Z,7.00
2022-09-09T01:54:22.273Z,7.00
2022-09-09T01:55:16.178Z,8.16
2022-09-09T01:56:23.274Z,8.27
2022-09-09T01:57:11.249Z,8.24
2022-09-09T01:58:12.206Z,7.13
2022-09-09T01:59:16.277Z,7.86
2022-09-09T02:00:19.170Z,8.60
2022-09-09T02:01:41.275Z,7.90
2022-09-09T02:03:05.377Z,7.21
2022-09-09T02:04:06.173Z,7.36
2022-09-09T02:05:05.233Z,7.54
2022-09-09T02:06:14.176Z,8.66
2022-09-09T02:07:04.222Z,8.71
2022-09-09T02:07:50.249Z,8.27
2022-09-09T02:08:58.174Z,8.31
2022-09-09T02:09:33.274Z,8.06
2022-09-09T02:10:41.181Z,7.86
2022-09-09T02:11:24.324Z,8.69
2022-09-09T02:12:19.222Z,9.05
2022-09-09T02:12:58.240Z,7.93
2022-09-09T02:13:46.152Z,8.63
2022-09-09T02:14:29.288Z,8.52
2022-09-09T02:15:47.216Z,8.61
2022-09-09T02:16:43.307Z,8.59
2022-09-09T02:17:36.217Z,8.51
2022-09-09T02:18:14.270Z,8.70
2022-09-09T02:19:16.180Z,8.09
2022-09-09T02:19:57.265Z,8.14
2022-09-09T02:20:48.173Z,8.39
2022-09-09T02:21:22.906Z,8.66
2022-09-09T02:22:11.191Z,8.91
2022-09-09T02:23:02.283Z,8.34
2022-09-09T02:23:36.615Z,9.56
2022-09-09T02:24:24.182Z,10.56
2022-09-09T02:25:00.114Z,9.00
2022-09-09T02:25:49.169Z,8.88
2022-09-09T02:26:24.361Z,8.49
2022-09-09T02:27:12.153Z,8.13
2022-09-09T02:27:47.257Z,8.50
2022-09-09T02:28:31.185Z,8.50
2022-09-09T02:29:07.240Z,8.13
2022-09-09T02:29:43.608Z,8.41
2022-09-09T02:30:24.205Z,9.09
2022-09-09T02:30:59.383Z,9.24
2022-09-09T02:31:36.457Z,8.68
2022-09-09T02:32:22.155Z,8.52
2022-09-09T02:32:59.584Z,8.74
2022-09-09T02:33:52.232Z,8.15
2022-09-09T02:34:33.257Z,8.20
2022-09-09T02:35:28.166Z,8.54
2022-09-09T02:36:10.288Z,8.66
2022-09-09T02:36:52.209Z,8.56
2022-09-09T02:37:40.326Z,8.79
2022-09-09T02:38:21.159Z,8.40
2022-09-09T02:39:09.191Z,7.97
2022-09-09T02:39:43.074Z,7.74
2022-09-09T02:40:31.172Z,7.79
2022-09-09T02:41:05.050Z,8.35
2022-09-09T02:41:56.166Z,8.74
2022-09-09T02:42:29.837Z,7.78
2022-09-09T02:43:17.148Z,8.49
2022-09-09T02:43:50.893Z,8.27
2022-09-09T02:44:32.178Z,8.24
2022-09-09T02:45:06.205Z,8.06
2022-09-09T02:46:23.338Z,8.46
2022-09-09T02:47:51.141Z,8.52
2022-09-09T02:48:39.277Z,8.04
2022-09-09T02:49:46.210Z,8.27
2022-09-09T02:51:16.208Z,8.96
2022-09-09T02:52:13.136Z,8.68
2022-09-09T02:53:12.261Z,8.25
2022-09-09T02:54:07.148Z,8.40
2022-09-09T02:54:54.200Z,8.27
2022-09-09T02:55:39.191Z,8.65
2022-09-09T02:56:36.161Z,9.69
2022-09-09T02:57:12.787Z,8.15
2022-09-09T02:58:01.120Z,8.26
2022-09-09T02:58:35.086Z,8.09
2022-09-09T02:59:22.137Z,8.04
2022-09-09T03:00:06.157Z,8.81
2022-09-09T03:00:47.368Z,9.27
2022-09-09T03:01:28.332Z,9.49
2022-09-09T03:02:08.241Z,8.13
2022-09-09T03:02:49.214Z,7.66
2022-09-09T03:03:29.209Z,8.51
2022-09-09T03:04:13.157Z,8.43
2022-09-09T03:04:53.591Z,8.40
2022-09-09T03:05:35.168Z,9.82
2022-09-09T03:06:16.704Z,10.09
2022-09-09T03:06:57.133Z,8.09
2022-09-09T03:07:37.164Z,8.13
2022-09-09T03:08:18.180Z,8.61
2022-09-09T03:09:01.403Z,8.36
2022-09-09T03:09:41.125Z,8.05
2022-09-09T03:10:21.228Z,8.49
2022-09-09T03:11:08.149Z,8.16
2022-09-09T03:11:50.358Z,8.00
2022-09-09T03:12:30.121Z,7.66
2022-09-09T03:13:13.816Z,7.80
2022-09-09T03:13:54.118Z,7.45
2022-09-09T03:14:34.192Z,8.14
2022-09-09T03:15:15.146Z,8.39
2022-09-09T03:15:56.194Z,7.55
2022-09-09T03:16:36.217Z,7.76
2022-09-09T03:17:17.744Z,8.60
2022-09-09T03:17:59.116Z,8.80
2022-09-09T03:18:39.169Z,7.68
2022-09-09T03:19:19.113Z,7.93
2022-09-09T03:19:59.744Z,8.74
2022-09-09T03:20:40.117Z,8.46
2022-09-09T03:21:20.179Z,8.15
2022-09-09T03:22:00.165Z,8.06
2022-09-09T03:22:41.433Z,7.90
2022-09-09T03:23:21.113Z,8.07
2022-09-09T03:24:01.217Z,8.18
2022-09-09T03:24:41.112Z,8.19
2022-09-09T03:25:21.184Z,8.09
2022-09-09T03:26:04.101Z,8.02
2022-09-09T03:26:47.997Z,7.74
2022-09-09T03:27:28.170Z,8.01
2022-09-09T03:28:09.189Z,8.18
2022-09-09T03:28:50.127Z,8.10
2022-09-09T03:29:30.189Z,7.81
2022-09-09T03:30:11.117Z,8.04
2022-09-09T03:30:52.156Z,8.27
2022-09-09T03:31:33.144Z,8.85
2022-09-09T03:32:13.220Z,8.06
2022-09-09T03:32:53.130Z,7.75
2022-09-09T03:33:35.174Z,7.76
2022-09-09T03:34:15.114Z,7.89
2022-09-09T03:34:56.196Z,7.54
2022-09-09T03:35:37.182Z,7.97
2022-09-09T03:36:17.184Z,8.76
2022-09-09T03:36:57.106Z,8.14
2022-09-09T03:37:37.177Z,9.27
2022-09-09T03:38:18.180Z,10.15
2022-09-09T03:38:59.833Z,7.79
2022-09-09T03:39:40.158Z,7.74
2022-09-09T03:40:21.164Z,7.44
2022-09-09T03:41:05.120Z,7.34
2022-09-09T03:41:46.321Z,8.18
2022-09-09T03:42:26.145Z,8.29
2022-09-09T03:43:06.169Z,7.24
2022-09-09T03:43:47.154Z,8.04
2022-09-09T03:44:28.171Z,8.01
2022-09-09T03:45:08.110Z,8.73
2022-09-09T03:45:49.332Z,8.81
2022-09-09T03:46:32.094Z,9.03
2022-09-09T03:47:12.189Z,8.98
2022-09-09T03:47:52.101Z,9.49
2022-09-09T03:48:33.324Z,9.38
2022-09-09T03:49:13.150Z,9.05
2022-09-09T03:49:54.181Z,8.20
2022-09-09T03:50:34.156Z,9.48
2022-09-09T03:51:14.146Z,10.38
2022-09-09T03:51:54.070Z,11.50
2022-09-09T03:52:35.148Z,9.69
2022-09-09T03:53:15.098Z,9.13
2022-09-09T03:53:56.525Z,8.99
2022-09-09T03:54:37.140Z,10.76
2022-09-09T03:55:18.488Z,9.80
2022-09-09T03:56:02.107Z,8.50
2022-09-09T03:56:43.178Z,9.24
2022-09-09T03:57:24.119Z,8.75
2022-09-09T03:58:04.754Z,8.34
2022-09-09T03:58:46.106Z,7.13
2022-09-09T03:59:26.425Z,7.55
2022-09-09T04:00:08.125Z,7.64
2022-09-09T04:00:49.255Z,8.49
2022-09-09T04:01:29.108Z,8.32
2022-09-09T04:02:10.237Z,7.59
2022-09-09T04:02:51.110Z,8.52
2022-09-09T04:03:32.165Z,8.06
2022-09-09T04:04:12.083Z,7.70
2022-09-09T04:04:52.764Z,8.16
2022-09-09T04:05:33.105Z,8.10
2022-09-09T04:06:15.912Z,8.50
2022-09-09T04:06:56.105Z,8.82
2022-09-09T04:07:36.187Z,9.65
2022-09-09T04:08:16.094Z,9.05
2022-09-09T04:08:56.389Z,8.54
2022-09-09T04:09:36.076Z,8.11
2022-09-09T04:10:16.779Z,7.34
2022-09-09T04:11:05.182Z,8.26
2022-09-09T04:11:39.182Z,8.26
2022-09-09T04:12:26.093Z,7.41
2022-09-09T04:13:00.894Z,6.78
2022-09-09T04:13:49.096Z,6.80
2022-09-09T04:14:23.212Z,7.00
2022-09-09T04:15:11.097Z,7.14
2022-09-09T04:15:45.216Z,7.00
2022-09-09T04:16:25.129Z,7.65
2022-09-09T04:17:07.200Z,7.66
2022-09-09T04:17:47.076Z,7.13
2022-09-09T04:18:29.457Z,7.38
2022-09-09T04:19:16.088Z,7.41
2022-09-09T04:19:49.848Z,7.70
2022-09-09T04:20:38.065Z,7.39
2022-09-09T04:21:13.339Z,7.53
2022-09-09T04:21:53.098Z,7.35
2022-09-09T04:22:27.108Z,7.43
2022-09-09T04:23:00.842Z,8.50
2022-09-09T04:23:42.061Z,8.66
2022-09-09T04:24:17.265Z,9.19
2022-09-09T04:24:50.753Z,7.20
2022-09-09T04:25:31.106Z,7.55
2022-09-09T04:26:07.195Z,7.38
2022-09-09T04:26:40.821Z,6.95
2022-09-09T04:27:21.088Z,6.95
2022-09-09T04:27:55.866Z,7.80
2022-09-09T04:28:33.852Z,8.20
2022-09-09T04:29:14.077Z,6.61
2022-09-09T04:29:48.118Z,6.88
2022-09-09T04:30:22.093Z,6.57
2022-09-09T04:31:04.062Z,6.76
2022-09-09T04:31:42.778Z,6.54
2022-09-09T04:32:16.775Z,6.64
2022-09-09T04:32:58.094Z,6.71
2022-09-09T04:33:40.485Z,6.44
2022-09-09T04:34:21.062Z,7.04
2022-09-09T04:35:01.157Z,8.14
2022-09-09T04:35:42.077Z,7.69
2022-09-09T04:36:22.158Z,7.81
2022-09-09T04:37:04.125Z,7.55
2022-09-09T04:37:44.158Z,7.36
2022-09-09T04:38:26.149Z,7.15
2022-09-09T04:39:07.146Z,7.29
2022-09-09T04:39:47.125Z,7.25
2022-09-09T04:40:27.134Z,7.45
2022-09-09T04:41:07.045Z,7.53
2022-09-09T04:41:48.137Z,8.57
2022-09-09T04:42:28.129Z,8.36
2022-09-09T04:43:14.203Z,7.05
2022-09-09T04:43:55.107Z,7.59
2022-09-09T04:44:35.184Z,7.70
2022-09-09T04:45:19.048Z,7.16
2022-09-09T04:46:00.448Z,7.79
2022-09-09T04:46:44.119Z,7.10
2022-09-09T04:47:24.227Z,7.03
2022-09-09T04:48:05.127Z,6.95
2022-09-09T04:48:45.150Z,7.13
2022-09-09T04:49:25.107Z,7.50
2022-09-09T04:50:05.535Z,6.96
2022-09-09T04:50:46.125Z,7.18
2022-09-09T04:51:27.703Z,7.15
2022-09-09T04:52:09.069Z,7.63
2022-09-09T04:52:50.920Z,7.82
2022-09-09T04:53:33.041Z,6.54
2022-09-09T04:54:13.112Z,6.94
2022-09-09T04:54:53.098Z,7.09
2022-09-09T04:55:33.145Z,7.35
2022-09-09T04:56:22.038Z,7.28
2022-09-09T04:57:14.195Z,7.57
2022-09-09T04:57:57.083Z,8.76
2022-09-09T04:58:37.396Z,7.65
2022-09-09T04:59:18.113Z,7.40
2022-09-09T05:00:05.053Z,8.00
2022-09-09T05:00:38.851Z,7.34
2022-09-09T05:01:29.071Z,7.06
2022-09-09T05:02:03.432Z,7.40
2022-09-09T05:02:55.061Z,6.80
2022-09-09T05:03:29.669Z,6.65
2022-09-09T05:04:18.128Z,7.28
2022-09-09T05:04:51.753Z,8.24
2022-09-09T05:05:33.131Z,7.31
2022-09-09T05:06:18.119Z,8.75
2022-09-09T05:06:51.760Z,9.18
2022-09-09T05:07:34.033Z,8.21
2022-09-09T05:08:16.428Z,7.54
2022-09-09T05:08:51.161Z,7.54
2022-09-09T05:09:31.048Z,6.90
2022-09-09T05:10:06.036Z,7.29
2022-09-09T05:10:49.041Z,7.47
2022-09-09T05:11:33.258Z,6.88
2022-09-09T05:12:13.038Z,6.99
2022-09-09T05:13:01.111Z,6.47
2022-09-09T05:13:41.618Z,6.71
2022-09-09T05:14:22.105Z,6.70
2022-09-09T05:15:02.030Z,6.40
2022-09-09T05:15:44.101Z,7.18
2022-09-09T05:16:25.146Z,7.64
2022-09-09T05:17:05.073Z,6.85
2022-09-09T05:17:45.052Z,6.49
2022-09-09T05:18:25.104Z,6.74
2022-09-09T05:19:06.056Z,6.79
2022-09-09T05:19:46.103Z,6.31
2022-09-09T05:20:26.083Z,6.60
2022-09-09T05:21:07.332Z,7.55
2022-09-09T05:21:47.120Z,6.14
2022-09-09T05:22:28.163Z,6.30
2022-09-09T05:23:08.003Z,6.25
2022-09-09T05:23:49.194Z,6.14
2022-09-09T05:24:31.134Z,5.74
2022-09-09T05:25:12.168Z,5.90
2022-09-09T05:26:04.021Z,6.82
2022-09-09T05:26:45.146Z,6.46
2022-09-09T05:27:27.071Z,6.07
2022-09-09T05:28:08.642Z,6.75
2022-09-09T05:28:49.080Z,7.59
2022-09-09T05:29:29.143Z,8.27
2022-09-09T05:30:09.008Z,7.18
2022-09-09T05:30:49.106Z,6.03
2022-09-09T05:31:30.055Z,6.06
2022-09-09T05:32:15.324Z,6.13
2022-09-09T05:32:56.046Z,6.71
2022-09-09T05:33:36.173Z,7.61
2022-09-09T05:34:16.039Z,8.06
2022-09-09T05:34:56.637Z,6.81
2022-09-09T05:35:37.015Z,6.84
2022-09-09T05:36:21.294Z,6.60
2022-09-09T05:37:01.001Z,6.59
2022-09-09T05:37:42.085Z,6.19
2022-09-09T05:38:24.782Z,7.78
2022-09-09T05:39:08.121Z,9.35
2022-09-09T05:39:48.043Z,8.66
2022-09-09T05:40:28.237Z,8.85
2022-09-09T05:41:10.065Z,6.35
2022-09-09T05:41:50.035Z,7.13
2022-09-09T05:42:29.960Z,7.24
2022-09-09T05:43:11.040Z,6.74
2022-09-09T05:43:52.116Z,7.06
2022-09-09T05:44:32.055Z,7.03
2022-09-09T05:45:15.008Z,6.64
2022-09-09T05:45:57.045Z,6.65
2022-09-09T05:46:38.095Z,7.32
2022-09-09T05:47:18.221Z,8.55
2022-09-09T05:48:01.010Z,8.75
2022-09-09T05:48:51.930Z,6.99
2022-09-09T05:49:33.037Z,6.46
2022-09-09T05:50:16.015Z,7.34
2022-09-09T05:51:01.989Z,8.29
2022-09-09T05:51:53.253Z,9.66
2022-09-09T05:52:35.086Z,8.00
2022-09-09T05:53:16.073Z,6.69
2022-09-09T05:53:57.158Z,6.71
2022-09-09T05:54:45.101Z,6.50
2022-09-09T05:55:18.944Z,7.65
2022-09-09T05:56:24.105Z,6.72
2022-09-09T05:56:57.693Z,7.19
2022-09-09T05:57:51.019Z,6.57
2022-09-09T05:58:25.292Z,5.57
2022-09-09T05:59:14.021Z,5.86
2022-09-09T05:59:54.038Z,7.28
2022-09-09T06:00:35.068Z,7.18
2022-09-09T06:01:37.029Z,6.99
2022-09-09T06:02:17.689Z,6.96
2022-09-09T06:03:00.049Z,7.07
2022-09-09T06:03:44.302Z,7.57
2022-09-09T06:04:26.012Z,8.32
2022-09-09T06:05:13.031Z,8.05
2022-09-09T06:06:02.502Z,7.39
2022-09-09T06:06:51.966Z,6.81
2022-09-09T06:07:25.737Z,6.05
2022-09-09T06:08:13.160Z,6.30
2022-09-09T06:08:46.914Z,5.49
2022-09-09T06:09:33.974Z,5.70
2022-09-09T06:10:08.459Z,6.26
2022-09-09T06:10:48.038Z,6.26
2022-09-09T06:11:26.029Z,7.32
2022-09-09T06:11:59.706Z,5.46
2022-09-09T06:12:41.165Z,5.53
2022-09-09T06:13:15.037Z,5.39
2022-09-09T06:13:51.348Z,7.41
2022-09-09T06:14:33.003Z,6.26
2022-09-09T06:15:07.058Z,5.89
2022-09-09T06:15:41.425Z,6.39
2022-09-09T06:16:25.063Z,6.69
2022-09-09T06:16:59.152Z,6.63
2022-09-09T06:17:32.750Z,7.14
2022-09-09T06:18:12.959Z,5.51
2022-09-09T06:18:53.141Z,7.00
2022-09-09T06:19:33.985Z,6.22
2022-09-09T06:20:15.169Z,5.46
2022-09-09T06:21:08.988Z,7.20
2022-09-09T06:21:50.040Z,6.79
2022-09-09T06:22:24.002Z,7.05
2022-09-09T06:22:57.629Z,9.21
2022-09-09T06:23:38.967Z,7.78
2022-09-09T06:24:14.881Z,6.99
2022-09-09T06:24:48.707Z,6.11
2022-09-09T06:25:29.957Z,5.64
2022-09-09T06:26:19.106Z,5.01
2022-09-09T06:26:59.005Z,5.55
2022-09-09T06:27:39.029Z,7.96
2022-09-09T06:28:18.965Z,7.66
2022-09-09T06:29:01.094Z,6.95
2022-09-09T06:29:40.980Z,9.18
2022-09-09T06:30:21.057Z,6.88
2022-09-09T06:31:35.184Z,7.03
2022-09-09T06:32:23.168Z,6.04
2022-09-09T06:32:56.994Z,6.13
2022-09-09T06:33:53.029Z,6.41
2022-09-09T06:34:26.751Z,5.68
2022-09-09T06:35:14.003Z,5.82
2022-09-09T06:35:54.246Z,6.20
2022-09-09T06:36:45.014Z,4.96
2022-09-09T06:37:18.868Z,5.43
2022-09-09T06:37:59.998Z,5.96
2022-09-09T06:38:34.148Z,4.60
2022-09-09T06:39:14.164Z,5.19
2022-09-09T06:39:56.039Z,5.59
2022-09-09T06:40:31.677Z,4.88
2022-09-09T06:41:06.735Z,6.01
2022-09-09T06:41:48.969Z,5.44
2022-09-09T06:42:23.030Z,5.01
2022-09-09T06:43:08.097Z,5.40
2022-09-09T06:43:49.103Z,4.68
2022-09-09T06:44:34.963Z,4.54
2022-09-09T06:45:16.141Z,5.22
2022-09-09T06:46:07.040Z,4.43
2022-09-09T06:46:51.043Z,4.45
2022-09-09T06:47:32.005Z,4.95
2022-09-09T06:48:20.169Z,4.88
2022-09-09T06:48:56.203Z,5.53
2022-09-09T06:49:47.752Z,4.89
2022-09-09T06:50:22.941Z,5.54
2022-09-09T06:51:25.044Z,5.16
2022-09-09T06:51:58.753Z,4.68
2022-09-09T06:52:47.260Z,4.68
2022-09-09T06:53:27.047Z,5.36
2022-09-09T06:54:09.063Z,5.88
2022-09-09T06:54:48.931Z,4.24
2022-09-09T06:55:29.104Z,4.29
2022-09-09T06:56:18.996Z,4.46
2022-09-09T06:57:00.729Z,5.15
2022-09-09T06:57:45.016Z,4.78
2022-09-09T06:58:26.062Z,4.94
2022-09-09T06:59:10.043Z,5.68
2022-09-09T06:59:50.074Z,5.21
2022-09-09T07:00:30.098Z,4.88
2022-09-09T07:01:14.123Z,4.55
2022-09-09T07:01:56.130Z,5.60
2022-09-09T07:02:40.079Z,5.96
2022-09-09T07:03:19.948Z,4.96
2022-09-09T07:04:05.340Z,4.91
2022-09-09T07:04:45.961Z,5.76
2022-09-09T07:05:27.130Z,5.06
2022-09-09T07:06:07.994Z,6.82
2022-09-09T07:06:53.555Z,4.38
2022-09-09T07:07:35.062Z,4.50
2022-09-09T07:08:15.352Z,4.94
2022-09-09T07:09:17.980Z,4.86
2022-09-09T07:10:05.972Z,5.26
2022-09-09T07:10:39.779Z,5.79
2022-09-09T07:11:27.015Z,5.60
2022-09-09T07:12:01.166Z,5.15
2022-09-09T07:12:49.986Z,5.76
2022-09-09T07:13:28.241Z,5.61
2022-09-09T07:14:16.053Z,6.40
2022-09-09T07:14:49.881Z,8.54
2022-09-09T07:15:31.048Z,6.31
2022-09-09T07:16:21.677Z,7.47
2022-09-09T07:16:59.494Z,8.73
2022-09-09T07:17:39.946Z,8.04
2022-09-09T07:18:14.116Z,7.46
2022-09-09T07:18:48.013Z,7.89
2022-09-09T07:19:28.971Z,8.14
2022-09-09T07:20:05.299Z,6.91
2022-09-09T07:21:07.054Z,4.94
2022-09-09T07:21:42.141Z,4.40
2022-09-09T07:22:29.083Z,4.36
2022-09-09T07:23:03.134Z,4.28
2022-09-09T07:23:50.968Z,4.75
2022-09-09T07:24:26.321Z,4.56
2022-09-09T07:25:13.947Z,5.16
2022-09-09T07:25:53.957Z,5.40
2022-09-09T07:26:36.986Z,6.16
2022-09-09T07:27:18.093Z,5.04
2022-09-09T07:27:58.951Z,4.90
2022-09-09T07:28:39.257Z,3.81
2022-09-09T07:29:21.413Z,5.01
2022-09-09T07:30:03.603Z,5.56
2022-09-09T07:30:43.953Z,4.79
2022-09-09T07:31:29.259Z,5.74
2022-09-09T07:32:11.042Z,6.11
2022-09-09T07:32:51.095Z,5.14
2022-09-09T07:33:33.020Z,4.96
2022-09-09T07:34:14.096Z,6.01
2022-09-09T07:34:54.972Z,4.86
2022-09-09T07:35:35.142Z,3.45
2022-09-09T07:36:33.323Z,4.68
2022-09-09T07:37:21.033Z,4.43
2022-09-09T07:38:15.998Z,5.06
2022-09-09T07:39:17.920Z,5.34
2022-09-09T07:40:13.011Z,5.19
2022-09-09T07:41:08.007Z,5.80
2022-09-09T07:42:02.962Z,4.85
2022-09-09T07:42:45.069Z,5.18
2022-09-09T07:43:26.057Z,5.20
2022-09-09T07:44:06.327Z,5.07
2022-09-09T07:44:47.068Z,4.60
2022-09-09T07:45:26.921Z,4.41
2022-09-09T07:46:08.145Z,4.25
2022-09-09T07:46:52.964Z,4.21
2022-09-09T07:47:33.033Z,5.57
2022-09-09T07:48:14.012Z,4.59
2022-09-09T07:49:02.029Z,3.96
2022-09-09T07:49:43.006Z,4.61
2022-09-09T07:50:23.099Z,6.95
2022-09-09T07:51:28.024Z,6.85
2022-09-09T07:52:53.997Z,4.70
2022-09-09T07:53:35.051Z,4.47
2022-09-09T07:54:15.780Z,4.74
2022-09-09T07:55:04.946Z,4.00
2022-09-09T07:55:39.072Z,3.60
2022-09-09T07:56:29.029Z,3.45
2022-09-09T07:57:04.883Z,3.88
2022-09-09T07:57:51.960Z,3.67
2022-09-09T07:58:25.969Z,4.34
2022-09-09T07:59:06.996Z,4.22
2022-09-09T07:59:47.584Z,4.61
2022-09-09T08:00:29.884Z,3.78
2022-09-09T08:01:32.163Z,3.60
2022-09-09T08:02:12.905Z,4.72
2022-09-09T08:02:55.095Z,3.33
2022-09-09T08:03:34.940Z,3.55
2022-09-09T08:04:26.914Z,3.90
2022-09-09T08:05:20.893Z,3.89
2022-09-09T08:06:17.862Z,3.51
2022-09-09T08:07:14.905Z,3.64
2022-09-09T08:08:08.949Z,3.44
2022-09-09T08:09:05.961Z,3.84
2022-09-09T08:09:46.921Z,4.85
2022-09-09T08:10:27.062Z,5.55
2022-09-09T08:11:18.897Z,5.53
2022-09-09T08:11:59.280Z,7.01
2022-09-09T08:12:42.146Z,6.38
2022-09-09T08:13:28.118Z,4.74
2022-09-09T08:14:07.908Z,5.31
2022-09-09T08:14:55.783Z,4.05
2022-09-09T08:15:50.921Z,3.64
2022-09-09T08:16:48.876Z,5.40
2022-09-09T08:17:43.037Z,7.63
2022-09-09T08:18:36.961Z,7.34
2022-09-09T08:19:31.896Z,8.99
2022-09-09T08:20:20.912Z,4.81
2022-09-09T08:20:54.961Z,3.91
2022-09-09T08:21:45.923Z,3.53
2022-09-09T08:22:23.055Z,3.29
2022-09-09T08:23:09.887Z,3.90
2022-09-09T08:23:43.932Z,4.82
2022-09-09T08:24:30.861Z,4.15
2022-09-09T08:25:07.437Z,4.56
2022-09-09T08:25:47.888Z,4.50
2022-09-09T08:26:36.921Z,3.36
2022-09-09T08:27:17.893Z,4.30
2022-09-09T08:27:57.995Z,3.47
2022-09-09T08:28:38.892Z,3.63
2022-09-09T08:29:20.915Z,5.93
2022-09-09T08:30:00.863Z,4.97
2022-09-09T08:30:40.924Z,4.54
2022-09-09T08:31:34.895Z,3.46
2022-09-09T08:32:14.948Z,3.33
2022-09-09T08:32:58.846Z,3.76
2022-09-09T08:33:39.525Z,3.26
2022-09-09T08:34:20.901Z,3.96
2022-09-09T08:35:01.409Z,4.36
2022-09-09T08:35:41.872Z,4.00
2022-09-09T08:36:27.989Z,4.47
2022-09-09T08:37:07.902Z,6.47
2022-09-09T08:37:51.633Z,4.53
2022-09-09T08:38:31.848Z,4.22
2022-09-09T08:39:13.937Z,3.65
2022-09-09T08:39:55.899Z,3.56
2022-09-09T08:40:39.965Z,3.24
2022-09-09T08:41:51.883Z,3.55
2022-09-09T08:42:41.909Z,3.51
2022-09-09T08:43:18.409Z,4.22
2022-09-09T08:44:44.509Z,4.57
2022-09-09T08:46:03.124Z,4.10
2022-09-09T08:47:04.905Z,3.50
2022-09-09T08:48:14.864Z,3.29
2022-09-09T08:49:25.865Z,3.72
2022-09-09T08:50:48.863Z,4.44
2022-09-09T08:51:44.837Z,3.76
2022-09-09T08:53:17.868Z,3.63
2022-09-09T08:54:13.913Z,4.57
2022-09-09T08:55:37.817Z,6.88
2022-09-09T08:56:36.867Z,7.21
2022-09-09T08:57:36.861Z,5.16
2022-09-09T08:58:45.909Z,4.01
2022-09-09T08:59:39.914Z,3.66
2022-09-09T09:00:34.838Z,4.26
2022-09-09T09:01:58.922Z,3.22
2022-09-09T09:03:16.831Z,3.83
2022-09-09T09:04:46.903Z,3.97
2022-09-09T09:06:01.899Z,3.28
2022-09-09T09:06:48.854Z,3.00
2022-09-09T09:07:37.951Z,3.35
2022-09-09T09:08:32.904Z,3.60
2022-09-09T09:09:23.903Z,4.10
2022-09-09T09:10:41.241Z,3.74
2022-09-09T09:11:23.516Z,3.01
2022-09-09T09:12:07.853Z,2.91
2022-09-09T09:12:51.384Z,2.41
2022-09-09T09:14:10.846Z,2.42
2022-09-09T09:14:56.389Z,2.65
2022-09-09T09:15:43.935Z,2.15
2022-09-09T09:16:52.927Z,2.19
2022-09-09T09:17:36.816Z,2.90
2022-09-09T09:18:19.900Z,2.29
2022-09-09T09:19:01.892Z,2.29
2022-09-09T09:19:44.205Z,2.69
2022-09-09T09:20:49.847Z,2.50
2022-09-09T09:21:46.884Z,2.91
2022-09-09T09:22:28.837Z,3.46
2022-09-09T09:23:09.870Z,2.80
2022-09-09T09:24:07.824Z,2.34
2022-09-09T09:25:11.883Z,2.69
2022-09-09T09:25:51.860Z,3.35
2022-09-09T09:26:38.864Z,2.96
2022-09-09T09:27:29.908Z,4.24
2022-09-09T09:28:31.899Z,4.76
2022-09-09T09:29:22.854Z,3.06
2022-09-09T09:30:22.836Z,2.24
2022-09-09T09:31:14.959Z,2.63
2022-09-09T09:32:02.089Z,3.25
2022-09-09T09:32:42.851Z,3.39
2022-09-09T09:33:32.952Z,3.05
2022-09-09T09:34:12.851Z,3.14
2022-09-09T09:35:06.929Z,3.34
2022-09-09T09:35:46.806Z,3.36
2022-09-09T09:37:15.848Z,5.49
2022-09-09T09:40:22.810Z,4.19
2022-09-09T09:41:12.803Z,2.08
2022-09-09T09:41:46.862Z,2.61
2022-09-09T09:42:34.903Z,3.63
2022-09-09T09:43:34.661Z,3.80
2022-09-09T09:44:44.795Z,4.13
2022-09-09T09:45:34.361Z,5.94
2022-09-09T09:46:35.896Z,4.61
2022-09-09T09:47:14.060Z,2.16
2022-09-09T09:48:00.073Z,2.41
2022-09-09T09:48:36.070Z,2.74
2022-09-09T09:49:11.075Z,2.55
2022-09-09T09:50:06.775Z,2.45
2022-09-09T09:50:40.836Z,3.17
2022-09-09T09:51:17.143Z,3.78
2022-09-09T09:51:56.818Z,3.04
2022-09-09T09:52:37.774Z,1.71
2022-09-09T09:53:35.812Z,2.15
2022-09-09T09:54:21.483Z,3.08
2022-09-09T09:55:07.794Z,3.42
2022-09-09T09:56:14.886Z,3.41
2022-09-09T09:56:54.800Z,4.01
2022-09-09T09:57:37.950Z,3.92
2022-09-09T09:58:22.792Z,4.11
2022-09-09T09:59:09.363Z,3.30
2022-09-09T09:59:51.917Z,2.59
2022-09-09T10:00:39.821Z,2.47
2022-09-09T10:01:34.230Z,2.38
2022-09-09T10:02:21.931Z,1.86
2022-09-09T10:02:57.336Z,2.21
2022-09-09T10:03:47.782Z,1.96
2022-09-09T10:04:33.889Z,2.50
2022-09-09T10:05:36.272Z,3.40
2022-09-09T10:06:30.800Z,7.25
2022-09-09T10:07:34.797Z,8.95
2022-09-09T10:08:30.816Z,9.35
2022-09-09T10:09:39.856Z,6.25
2022-09-09T10:10:48.806Z,3.15
2022-09-09T10:11:56.915Z,2.89
2022-09-09T10:13:21.852Z,3.33
2022-09-09T10:14:34.811Z,2.86
2022-09-09T10:15:34.877Z,1.85
2022-09-09T10:16:37.869Z,2.59
2022-09-09T10:17:56.799Z,2.46
2022-09-09T10:19:08.057Z,1.91
2022-09-09T10:20:11.920Z,2.14
2022-09-09T10:21:33.066Z,4.59
2022-09-09T10:22:35.202Z,6.78
2022-09-09T10:24:05.780Z,4.19
2022-09-09T10:25:00.931Z,4.28
2022-09-09T10:26:23.789Z,3.46
2022-09-09T10:27:20.811Z,2.89
2022-09-09T10:29:07.012Z,2.71
2022-09-09T10:30:23.798Z,2.56
2022-09-09T10:31:37.835Z,3.26
2022-09-09T10:32:50.822Z,3.40
2022-09-09T10:33:54.778Z,4.95
2022-09-09T10:35:05.742Z,7.54